Time;durP1;ratioP1;P1;durP2;ratioP2;P2;SDS_P1;SDS_P2;PMS_P1;PMS_P2;Temp;Humidity;BMP_temperature;BMP_pressure;BME280_temperature;BME280_humidity;BME280_pressure;Samples;Min_cycle;Max_cycle;Signal;HPM_P1;HPM_P2
2020/12/09 00:00:28;;;;;;;63.90;30.65;;;3.40;92.40;;;;;;4996770;28;20179;-67
2020/12/09 00:02:54;;;;;;;66.43;33.25;;;3.40;95.00;;;;;;4996528;28;20180;-67
2020/12/09 00:05:19;;;;;;;57.20;28.57;;;3.50;98.20;;;;;;4996525;28;20200;-67
2020/12/09 00:07:45;;;;;;;52.13;30.00;;;3.50;98.30;;;;;;4997904;28;20426;-67
2020/12/09 00:10:11;;;;;;;66.93;31.57;;;3.50;96.20;;;;;;4997414;28;20187;-67
2020/12/09 00:12:37;;;;;;;64.87;33.20;;;3.40;95.50;;;;;;4997593;28;20202;-67
2020/12/09 00:15:06;;;;;;;63.42;30.63;;;3.40;94.30;;;;;;4996962;28;20214;-66
2020/12/09 00:17:31;;;;;;;62.22;30.77;;;3.50;94.90;;;;;;4997416;28;20184;-66
2020/12/09 00:19:57;;;;;;;55.50;29.83;;;3.50;93.60;;;;;;4996952;28;20191;-66
2020/12/09 00:22:26;;;;;;;63.27;31.37;;;3.40;94.50;;;;;;4997157;28;20186;-64
2020/12/09 00:24:52;;;;;;;69.00;31.42;;;3.50;96.20;;;;;;4997462;28;20183;-64
2020/12/09 00:27:18;;;;;;;60.50;30.63;;;3.50;97.30;;;;;;4997899;28;20266;-64
2020/12/09 00:29:43;;;;;;;67.07;32.03;;;3.60;99.00;;;;;;4997901;28;20895;-64
2020/12/09 00:32:09;;;;;;;62.80;29.90;;;3.50;96.30;;;;;;4997835;28;20438;-64
2020/12/09 00:34:35;;;;;;;62.73;31.93;;;3.60;97.00;;;;;;4997795;28;20278;-63
2020/12/09 00:37:00;;;;;;;66.40;33.83;;;3.70;95.80;;;;;;4997170;28;20226;-64
2020/12/09 00:39:26;;;;;;;74.10;33.90;;;3.70;93.60;;;;;;4997498;28;20180;-64
2020/12/09 00:41:51;;;;;;;73.60;37.10;;;3.80;91.30;;;;;;4997622;28;20620;-64
2020/12/09 00:44:17;;;;;;;64.43;31.77;;;3.80;81.10;;;;;;4997426;28;20497;-67
2020/12/09 00:46:42;;;;;;;72.57;34.30;;;3.70;70.60;;;;;;4996142;28;20211;-66
2020/12/09 00:49:08;;;;;;;62.30;31.57;;;3.70;64.40;;;;;;4997352;28;20624;-67
2020/12/09 00:51:33;;;;;;;61.17;31.47;;;3.60;58.40;;;;;;4996247;28;20326;-67
2020/12/09 00:53:59;;;;;;;52.83;27.07;;;3.40;51.40;;;;;;4996893;28;20203;-67
2020/12/09 00:56:25;;;;;;;71.10;33.70;;;3.30;77.20;;;;;;4997097;28;20639;-66
2020/12/09 00:58:50;;;;;;;71.20;32.60;;;3.40;96.90;;;;;;4996491;28;20203;-66
2020/12/09 01:01:16;;;;;;;58.40;29.90;;;3.30;99.30;;;;;;4996682;28;20233;-66
2020/12/09 01:03:42;;;;;;;67.87;31.40;;;3.30;99.90;;;;;;4996725;28;20187;-66
2020/12/09 01:06:08;;;;;;;68.77;32.80;;;3.20;99.90;;;;;;4997179;28;20434;-64
2020/12/09 01:08:35;;;;;;;64.05;31.75;;;3.40;99.90;;;;;;4997017;28;20179;-64
2020/12/09 01:11:02;;;;;;;59.17;29.70;;;3.40;99.90;;;;;;4996898;28;20175;-64
2020/12/09 01:13:27;;;;;;;74.43;34.55;;;3.50;99.90;;;;;;4996413;28;20180;-64
2020/12/09 01:15:53;;;;;;;71.60;34.67;;;3.40;99.90;;;;;;4996518;28;20184;-65
2020/12/09 01:18:19;;;;;;;69.97;32.10;;;3.30;99.90;;;;;;4997500;28;20190;-66
2020/12/09 01:20:44;;;;;;;73.90;33.27;;;3.40;99.90;;;;;;4995705;28;20566;-67
2020/12/09 01:23:10;;;;;;;64.47;30.67;;;3.40;99.90;;;;;;4995301;28;20219;-67
2020/12/09 01:25:36;;;;;;;64.47;33.17;;;3.40;99.90;;;;;;4996295;28;20430;-67
2020/12/09 01:28:03;;;;;;;73.03;30.10;;;3.50;99.90;;;;;;4996567;28;20521;-64
2020/12/09 01:30:30;;;;;;;62.95;28.48;;;3.40;99.90;;;;;;4996531;28;20188;-64
2020/12/09 01:32:56;;;;;;;68.05;32.53;;;3.40;99.90;;;;;;4996590;28;20215;-67
2020/12/09 01:35:22;;;;;;;72.55;31.35;;;3.30;99.90;;;;;;4996524;28;20230;-67
2020/12/09 01:37:49;;;;;;;67.07;30.70;;;3.30;99.90;;;;;;4996914;28;20175;-67
2020/12/09 01:40:15;;;;;;;65.00;31.38;;;3.30;99.90;;;;;;4996455;28;20259;-65
2020/12/09 01:42:40;;;;;;;68.00;31.60;;;3.30;99.90;;;;;;4996143;28;20535;-66
2020/12/09 01:45:06;;;;;;;67.23;32.20;;;3.30;99.90;;;;;;4995581;28;20556;-67
2020/12/09 01:47:32;;;;;;;67.30;31.70;;;3.40;99.90;;;;;;4996461;28;20176;-67
2020/12/09 01:49:59;;;;;;;74.60;31.20;;;3.50;99.90;;;;;;4997080;28;20434;-64
2020/12/09 01:52:25;;;;;;;65.20;31.25;;;3.40;99.90;;;;;;4996398;28;20237;-66
2020/12/09 01:54:55;;;;;;;65.55;31.33;;;3.40;99.90;;;;;;4995695;28;20297;-64
2020/12/09 01:57:22;;;;;;;67.82;32.67;;;3.40;99.90;;;;;;4995209;28;20168;-64
2020/12/09 01:59:48;;;;;;;60.22;30.05;;;3.40;99.90;;;;;;4995372;28;20203;-64
2020/12/09 02:02:14;;;;;;;58.37;28.90;;;3.50;99.90;;;;;;4995570;28;20500;-63
2020/12/09 02:04:41;;;;;;;62.72;27.10;;;3.30;99.90;;;;;;4995408;28;20437;-64
2020/12/09 02:07:06;;;;;;;59.88;27.80;;;3.20;99.90;;;;;;4995871;28;20202;-64
2020/12/09 02:09:32;;;;;;;57.23;26.57;;;3.10;99.90;;;;;;4995648;28;20521;-65
2020/12/09 02:11:58;;;;;;;60.87;29.33;;;3.10;99.90;;;;;;4995526;28;20580;-66
2020/12/09 02:14:24;;;;;;;65.97;29.10;;;3.10;99.90;;;;;;4995010;28;20265;-66
2020/12/09 02:16:52;;;;;;;58.78;28.85;;;3.20;99.90;;;;;;4995280;28;20180;-67
2020/12/09 02:19:18;;;;;;;67.70;30.40;;;3.10;99.90;;;;;;4995204;28;20175;-67
2020/12/09 02:21:44;;;;;;;67.23;29.90;;;3.20;99.90;;;;;;4988928;28;20219;-64
2020/12/09 02:24:10;;;;;;;65.60;31.23;;;3.20;99.90;;;;;;4979306;28;20281;-64
2020/12/09 02:26:41;;;;;;;72.33;30.17;;;3.20;99.90;;;;;;4992735;28;20243;-64
2020/12/09 02:29:06;;;;;;;68.65;32.13;;;3.40;99.90;;;;;;4993638;28;20548;-64
2020/12/09 02:31:32;;;;;;;72.73;32.70;;;3.30;99.90;;;;;;4994755;28;20187;-66
2020/12/09 02:33:57;;;;;;;63.43;31.37;;;3.40;99.90;;;;;;4994760;28;20211;-66
2020/12/09 02:36:23;;;;;;;64.07;30.33;;;3.40;99.90;;;;;;4995002;28;20183;-67
2020/12/09 02:38:48;;;;;;;65.47;29.03;;;3.40;99.90;;;;;;4994776;28;20203;-67
2020/12/09 02:41:14;;;;;;;68.60;30.87;;;3.30;99.90;;;;;;4994718;28;20187;-67
2020/12/09 02:43:39;;;;;;;72.27;29.10;;;3.40;99.90;;;;;;4993553;28;20206;-67
2020/12/09 02:46:05;;;;;;;60.30;30.73;;;3.50;99.90;;;;;;4994789;28;20202;-67
2020/12/09 02:48:30;;;;;;;62.47;29.53;;;3.30;99.90;;;;;;4994783;28;20202;-67
2020/12/09 02:50:56;;;;;;;68.77;30.57;;;3.30;99.90;;;;;;4994860;28;20241;-67
2020/12/09 02:53:22;;;;;;;75.07;30.17;;;3.40;99.90;;;;;;4994912;28;20576;-67
2020/12/09 02:55:48;;;;;;;66.53;30.57;;;3.50;99.90;;;;;;4994594;28;20289;-64
2020/12/09 02:58:13;;;;;;;64.53;29.00;;;3.50;99.90;;;;;;4994807;28;20520;-64
2020/12/09 03:00:39;;;;;;;62.83;28.80;;;3.50;99.90;;;;;;4994556;28;20486;-64
2020/12/09 03:03:04;;;;;;;59.20;28.17;;;3.50;99.90;;;;;;4993710;28;20176;-64
2020/12/09 03:05:30;;;;;;;54.40;29.30;;;3.70;99.90;;;;;;4994594;28;20632;-64
2020/12/09 03:07:56;;;;;;;63.30;29.13;;;3.50;99.90;;;;;;4994605;28;20195;-64
2020/12/09 03:10:21;;;;;;;67.10;30.03;;;3.70;99.90;;;;;;4994096;28;20210;-64
2020/12/09 03:12:47;;;;;;;63.80;29.40;;;3.60;99.90;;;;;;4994610;28;20270;-64
2020/12/09 03:15:12;;;;;;;59.77;29.17;;;3.70;99.90;;;;;;4994120;28;20373;-64
2020/12/09 03:17:38;;;;;;;61.27;30.37;;;3.70;99.90;;;;;;4994598;28;20215;-64
2020/12/09 03:20:03;;;;;;;68.70;30.10;;;3.70;99.90;;;;;;4994574;28;20577;-64
2020/12/09 03:22:29;;;;;;;76.90;35.87;;;3.60;94.80;;;;;;4994453;28;20189;-65
2020/12/09 03:24:54;;;;;;;68.10;31.00;;;3.80;99.30;;;;;;4994136;28;20667;-64
2020/12/09 03:27:20;;;;;;;65.47;29.20;;;3.80;88.10;;;;;;4994420;28;20262;-64
2020/12/09 03:29:46;;;;;;;69.47;33.17;;;3.80;75.60;;;;;;4993352;28;20658;-64
2020/12/09 03:32:12;;;;;;;64.68;31.83;;;3.90;66.10;;;;;;4994378;28;20203;-64
2020/12/09 03:34:37;;;;;;;74.83;29.83;;;3.90;42.20;;;;;;4994212;28;20241;-64
2020/12/09 03:37:03;;;;;;;65.90;28.37;;;3.70;17.70;;;;;;4993350;28;20182;-64
2020/12/09 03:39:28;;;;;;;68.97;29.20;;;3.70;22.50;;;;;;4994322;28;20635;-64
2020/12/09 03:41:54;;;;;;;67.30;31.23;;;3.80;33.50;;;;;;4994468;28;20171;-64
2020/12/09 03:44:19;;;;;;;61.93;28.30;;;4.10;45.30;;;;;;4994231;28;20212;-64
2020/12/09 03:46:45;;;;;;;71.77;30.20;;;3.90;12.60;;;;;;4994135;28;20183;-64
2020/12/09 03:49:11;;;;;;;64.20;30.63;;;3.80;1.00;;;;;;4993321;28;20256;-64
2020/12/09 03:51:36;;;;;;;69.30;31.00;;;4.00;1.00;;;;;;4994157;28;20198;-64
2020/12/09 03:54:03;;;;;;;70.43;27.90;;;4.10;1.00;;;;;;4993867;28;20313;-64
2020/12/09 03:56:29;;;;;;;70.90;31.98;;;4.00;1.00;;;;;;4993953;28;20262;-67
2020/12/09 03:58:55;;;;;;;65.38;28.05;;;3.90;1.00;;;;;;4994120;28;20195;-67
2020/12/09 04:01:21;;;;;;;64.53;30.97;;;4.10;1.00;;;;;;4994090;28;20182;-64
2020/12/09 04:03:46;;;;;;;62.67;28.60;;;4.10;1.00;;;;;;4993765;28;20182;-64
2020/12/09 04:06:12;;;;;;;67.93;32.03;;;4.10;1.00;;;;;;4993450;28;20427;-64
2020/12/09 04:08:37;;;;;;;53.63;26.10;;;4.20;1.00;;;;;;4994124;28;20482;-67
2020/12/09 04:11:03;;;;;;;67.50;30.80;;;4.30;1.00;;;;;;4994113;28;20187;-67
2020/12/09 04:13:28;;;;;;;59.00;28.47;;;4.30;1.00;;;;;;4993823;28;20176;-67
2020/12/09 04:15:54;;;;;;;69.90;29.50;;;4.30;1.00;;;;;;4994162;28;20211;-67
2020/12/09 04:18:20;;;;;;;71.20;31.90;;;4.40;1.00;;;;;;4993870;28;20663;-67
2020/12/09 04:20:45;;;;;;;66.33;29.30;;;4.40;1.00;;;;;;4994848;28;20275;-65
2020/12/09 04:23:11;;;;;;;56.27;28.10;;;4.30;1.00;;;;;;4997236;28;20183;-65
2020/12/09 04:25:36;;;;;;;66.00;29.27;;;4.40;1.00;;;;;;4997472;28;20569;-65
2020/12/09 04:28:02;;;;;;;57.93;27.90;;;4.50;1.00;;;;;;4997326;28;20643;-67
2020/12/09 04:30:27;;;;;;;61.83;32.57;;;4.50;1.00;;;;;;4996344;28;20246;-68
2020/12/09 04:32:53;;;;;;;64.63;30.40;;;4.40;1.00;;;;;;4996202;28;20675;-67
2020/12/09 04:35:19;;;;;;;59.03;27.90;;;4.30;1.00;;;;;;4995868;28;20261;-67
2020/12/09 04:37:45;;;;;;;56.30;27.97;;;4.40;1.00;;;;;;4997043;28;20180;-64
2020/12/09 04:40:11;;;;;;;69.13;29.73;;;4.20;1.00;;;;;;4997154;28;20186;-64
2020/12/09 04:42:37;;;;;;;59.37;26.27;;;4.30;1.00;;;;;;4997179;28;20411;-64
2020/12/09 04:45:03;;;;;;;66.30;27.93;;;4.40;1.00;;;;;;4996740;28;20187;-64
2020/12/09 04:47:43;;;;;;;63.75;29.02;;;4.50;1.00;;;;;;4996926;28;20215;-64
2020/12/09 04:50:11;;;;;;;63.22;31.98;;;4.60;1.00;;;;;;4997374;28;20619;-64
2020/12/09 04:52:47;;;;;;;62.38;29.55;;;4.60;1.00;;;;;;4997155;28;20274;-64
2020/12/09 04:55:16;;;;;;;57.08;25.63;;;4.50;1.00;;;;;;4996077;28;20245;-64
2020/12/09 04:57:50;;;;;;;60.28;28.60;;;4.40;1.00;;;;;;4996680;28;20180;-64
2020/12/09 05:00:15;;;;;;;65.03;30.30;;;4.20;1.00;;;;;;4996708;28;20625;-64
2020/12/09 05:02:46;;;;;;;70.10;30.67;;;3.80;1.00;;;;;;4996724;28;20176;-64
2020/12/09 05:05:14;;;;;;;60.20;28.80;;;3.90;1.00;;;;;;4997091;28;20270;-64
2020/12/09 05:07:49;;;;;;;56.05;26.70;;;4.10;1.00;;;;;;4997082;28;20194;-64
2020/12/09 05:10:25;;;;;;;62.90;28.50;;;4.00;1.00;;;;;;4996717;28;20341;-64
2020/12/09 05:12:52;;;;;;;65.95;30.17;;;3.80;1.00;;;;;;4995751;28;20197;-64
2020/12/09 05:15:24;;;;;;;68.20;29.65;;;3.70;1.00;;;;;;4996753;28;20211;-64
2020/12/09 05:18:09;;;;;;;60.13;28.42;;;3.70;1.00;;;;;;4996759;28;20187;-64
2020/12/09 05:20:38;;;;;;;64.70;28.67;;;3.70;1.00;;;;;;4996963;28;20613;-64
2020/12/09 05:23:05;;;;;;;61.33;26.70;;;3.90;1.00;;;;;;4996903;28;20188;-64
2020/12/09 05:25:32;;;;;;;66.60;27.50;;;4.00;1.00;;;;;;4996871;28;20638;-64
2020/12/09 05:28:01;;;;;;;68.72;29.80;;;4.00;1.00;;;;;;4997804;28;20191;-64
2020/12/09 05:30:45;;;;;;;65.97;29.58;;;4.10;1.00;;;;;;4997302;28;20203;-64
2020/12/09 05:33:21;;;;;;;56.10;26.25;;;4.20;1.00;;;;;;4996192;28;20191;-64
2020/12/09 05:35:59;;;;;;;61.45;29.50;;;4.10;1.00;;;;;;4997508;28;20210;-64
2020/12/09 05:38:25;;;;;;;57.22;29.98;;;4.00;1.00;;;;;;4998260;28;20218;-64
2020/12/09 05:40:53;;;;;;;58.20;28.73;;;4.00;1.00;;;;;;4998678;28;20187;-64
2020/12/09 05:43:18;;;;;;;57.45;28.00;;;4.20;1.00;;;;;;4998790;28;20398;-64
2020/12/09 05:45:45;;;;;;;60.70;30.27;;;4.30;1.00;;;;;;4997558;28;20187;-64
2020/12/09 05:48:32;;;;;;;57.80;28.42;;;4.50;1.00;;;;;;4998665;28;20566;-65
2020/12/09 05:50:59;;;;;;;63.13;28.50;;;4.30;1.00;;;;;;4998820;28;20651;-65
2020/12/09 05:53:27;;;;;;;64.35;28.52;;;4.10;1.00;;;;;;4997069;28;20376;-64
2020/12/09 05:56:08;;;;;;;63.90;28.95;;;4.20;1.00;;;;;;4997160;28;20301;-67
2020/12/09 05:58:34;;;;;;;65.75;28.92;;;4.10;1.00;;;;;;4995729;28;20191;-64
2020/12/09 06:01:19;;;;;;;62.23;27.90;;;4.10;1.00;;;;;;4995480;28;20246;-66
2020/12/09 06:03:56;;;;;;;69.03;30.08;;;3.80;1.00;;;;;;4995791;28;20266;-66
2020/12/09 06:06:28;;;;;;;62.53;30.55;;;3.80;1.00;;;;;;4995807;28;20171;-67
2020/12/09 06:08:59;;;;;;;54.00;27.30;;;3.90;1.00;;;;;;4995576;28;20191;-68
2020/12/09 06:11:25;;;;;;;66.30;30.98;;;4.20;1.00;;;;;;4995767;28;20180;-67
2020/12/09 06:13:52;;;;;;;69.33;33.00;;;4.20;1.00;;;;;;4995863;28;20199;-65
2020/12/09 06:16:18;;;;;;;60.97;29.13;;;4.20;1.00;;;;;;4996410;28;20202;-64
2020/12/09 06:18:52;;;;;;;67.60;29.90;;;4.20;1.00;;;;;;4996058;28;20654;-63
2020/12/09 06:21:17;;;;;;;67.70;33.28;;;4.10;1.00;;;;;;4995605;28;20187;-63
2020/12/09 06:23:44;;;;;;;59.53;31.00;;;4.20;1.00;;;;;;4995026;28;20223;-63
2020/12/09 06:26:09;;;;;;;69.53;30.42;;;4.30;1.00;;;;;;4995376;28;20183;-66
2020/12/09 06:28:39;;;;;;;63.33;30.50;;;4.30;1.00;;;;;;4995189;28;20516;-66
2020/12/09 06:31:13;;;;;;;63.55;27.45;;;4.10;1.00;;;;;;4994989;28;20176;-63
2020/12/09 06:33:44;;;;;;;58.55;28.15;;;4.10;1.00;;;;;;4994401;28;20200;-63
2020/12/09 06:36:10;;;;;;;66.35;30.05;;;4.10;1.00;;;;;;4993856;28;20523;-63
2020/12/09 06:38:35;;;;;;;62.93;29.93;;;4.40;1.00;;;;;;4995117;28;20183;-63
2020/12/09 06:41:04;;;;;;;63.87;30.23;;;4.50;1.00;;;;;;4994707;28;20168;-64
2020/12/09 06:43:30;;;;;;;64.25;32.05;;;4.60;1.00;;;;;;4994337;28;20534;-66
2020/12/09 06:45:56;;;;;;;55.17;27.02;;;4.30;1.00;;;;;;4994801;28;20219;-66
2020/12/09 06:48:24;;;;;;;60.33;27.40;;;4.10;1.00;;;;;;4994685;28;20187;-66
2020/12/09 06:50:50;;;;;;;56.95;28.35;;;4.00;1.00;;;;;;4993558;28;20438;-67
2020/12/09 06:53:20;;;;;;;58.17;29.03;;;4.10;1.00;;;;;;4994459;28;20187;-63
2020/12/09 06:55:47;;;;;;;60.95;28.33;;;4.20;1.00;;;;;;4994586;28;20922;-63
2020/12/09 06:58:23;;;;;;;60.78;26.73;;;4.10;1.00;;;;;;4993666;28;20350;-64
2020/12/09 07:01:06;;;;;;;60.60;27.08;;;4.20;1.00;;;;;;4994989;28;20514;-64
2020/12/09 07:03:37;;;;;;;64.50;28.80;;;4.30;1.00;;;;;;4994504;28;20179;-65
2020/12/09 07:06:21;;;;;;;66.88;32.22;;;4.10;1.00;;;;;;4993498;28;20245;-67
2020/12/09 07:08:48;;;;;;;56.13;27.88;;;4.10;1.00;;;;;;4994505;28;20191;-67
2020/12/09 07:11:14;;;;;;;57.17;29.85;;;4.10;1.00;;;;;;4994584;28;20519;-64
2020/12/09 07:13:40;;;;;;;57.90;28.10;;;4.10;1.00;;;;;;4994588;28;20190;-64
2020/12/09 07:16:06;;;;;;;63.97;29.00;;;4.10;1.00;;;;;;4994759;28;20692;-67
2020/12/09 07:18:36;;;;;;;53.67;27.93;;;4.00;1.00;;;;;;4994738;28;20537;-67
2020/12/09 07:21:04;;;;;;;66.03;28.25;;;4.10;1.00;;;;;;4994690;28;20509;-67
2020/12/09 07:23:29;;;;;;;63.13;29.42;;;4.10;1.00;;;;;;4994330;28;20175;-67
2020/12/09 07:25:56;;;;;;;65.13;29.03;;;4.20;1.00;;;;;;4994490;28;20321;-67
2020/12/09 07:28:21;;;;;;;61.47;28.27;;;4.20;1.00;;;;;;4994089;28;20555;-67
2020/12/09 07:30:47;;;;;;;60.10;27.60;;;4.20;1.00;;;;;;4994304;28;20303;-67
2020/12/09 07:33:16;;;;;;;63.35;29.63;;;4.30;1.00;;;;;;4994106;28;20178;-67
2020/12/09 07:35:43;;;;;;;65.18;31.60;;;4.40;1.00;;;;;;4994380;28;20206;-64
2020/12/09 07:38:09;;;;;;;70.63;28.75;;;4.50;1.00;;;;;;4994249;28;20186;-66
2020/12/09 07:40:35;;;;;;;65.50;30.40;;;4.50;1.00;;;;;;4992727;28;20179;-67
2020/12/09 07:43:10;;;;;;;68.28;31.35;;;4.60;1.00;;;;;;4994242;28;20501;-67
2020/12/09 07:45:41;;;;;;;62.83;28.98;;;4.40;1.00;;;;;;4993253;28;20178;-67
2020/12/09 07:48:11;;;;;;;66.85;28.85;;;4.50;1.00;;;;;;4992921;28;20187;-67
2020/12/09 07:50:37;;;;;;;59.47;28.77;;;4.40;1.00;;;;;;4993938;28;20186;-67
2020/12/09 07:53:04;;;;;;;69.13;30.75;;;4.50;1.00;;;;;;4993973;28;20608;-67
2020/12/09 07:55:32;;;;;;;58.50;31.90;;;4.30;1.00;;;;;;4994792;28;20330;-67
2020/12/09 07:58:24;;;;;;;57.72;29.00;;;4.40;1.00;;;;;;4997806;28;20225;-67
2020/12/09 08:00:50;;;;;;;62.08;29.05;;;4.30;1.00;;;;;;4994909;28;20527;-67
2020/12/09 08:03:21;;;;;;;61.93;30.10;;;4.40;1.00;;;;;;4997410;28;20256;-67
2020/12/09 08:05:48;;;;;;;58.53;26.80;;;4.60;1.00;;;;;;4997925;28;20470;-63
2020/12/09 08:08:15;;;;;;;58.63;27.45;;;4.50;1.00;;;;;;4997457;28;20179;-63
2020/12/09 08:10:45;;;;;;;63.40;28.65;;;4.60;1.00;;;;;;4997990;28;20498;-63
2020/12/09 08:13:14;;;;;;;55.90;27.42;;;4.70;1.00;;;;;;4998374;28;20176;-66
2020/12/09 08:15:42;;;;;;;66.60;27.65;;;4.60;1.00;;;;;;4997829;28;20215;-66
2020/12/09 08:18:19;;;;;;;66.45;30.67;;;4.90;1.00;;;;;;4998067;28;20180;-66
2020/12/09 08:20:49;;;;;;;63.72;29.23;;;4.60;1.00;;;;;;4997589;28;20225;-66
2020/12/09 08:23:15;;;;;;;63.30;31.08;;;4.50;1.00;;;;;;4987957;28;20184;-63
2020/12/09 08:25:45;;;;;;;70.50;31.93;;;4.40;1.00;;;;;;4991961;28;20213;-63
2020/12/09 08:28:11;;;;;;;61.88;30.73;;;4.20;1.00;;;;;;4978036;28;20438;-63
2020/12/09 08:30:36;;;;;;;80.23;33.60;;;4.30;1.00;;;;;;4981190;28;20638;-63
2020/12/09 08:33:11;;;;;;;69.07;30.30;;;4.60;1.00;;;;;;4997439;28;20179;-63
2020/12/09 08:35:58;;;;;;;58.65;30.13;;;4.50;1.00;;;;;;4997329;28;20436;-64
2020/12/09 08:38:38;;;;;;;59.85;27.35;;;4.40;1.00;;;;;;4997376;28;20210;-64
2020/12/09 08:41:07;;;;;;;58.22;29.80;;;4.40;1.00;;;;;;4978219;28;20223;-65
2020/12/09 08:43:34;;;;;;;58.72;29.33;;;4.80;1.00;;;;;;4980303;28;20212;-63
2020/12/09 08:46:01;;;;;;;72.90;34.20;;;4.90;1.00;;;;;;4975228;28;20255;-63
2020/12/09 08:48:27;;;;;;;52.65;29.17;;;5.10;1.00;;;;;;4974188;28;20230;-63
2020/12/09 08:50:53;;;;;;;62.20;29.43;;;5.00;1.00;;;;;;4977232;28;20220;-64
2020/12/09 08:53:20;;;;;;;56.70;27.57;;;5.00;1.00;;;;;;4976945;28;20198;-63
2020/12/09 08:55:47;;;;;;;61.85;30.52;;;5.00;1.00;;;;;;4977201;28;20467;-63
2020/12/09 08:58:17;;;;;;;56.42;27.55;;;4.90;1.00;;;;;;4958005;28;20510;-63
2020/12/09 09:00:43;;;;;;;72.82;36.70;;;5.10;1.00;;;;;;4973349;28;20175;-62
2020/12/09 09:03:16;;;;;;;65.80;31.58;;;4.70;99.90;;;;;;4977023;28;20176;-62
2020/12/09 09:05:43;;;;;;;59.17;26.33;;;4.30;1.00;;;;;;4977266;28;20184;-62
2020/12/09 09:08:09;;;;;;;57.90;28.95;;;4.40;1.00;;;;;;4977236;28;20551;-62
2020/12/09 09:10:39;;;;;;;59.75;27.92;;;4.40;1.00;;;;;;4977193;28;20211;-61
2020/12/09 09:13:05;;;;;;;57.50;27.30;;;4.60;1.00;;;;;;4976973;28;20195;-62
2020/12/09 09:15:31;;;;;;;53.50;25.90;;;4.70;1.00;;;;;;4976817;28;20215;-63
2020/12/09 09:17:58;;;;;;;58.03;26.98;;;4.60;1.00;;;;;;4976278;28;20176;-62
2020/12/09 09:20:24;;;;;;;49.90;24.73;;;4.70;1.00;;;;;;4976685;28;20180;-62
2020/12/09 09:22:50;;;;;;;54.80;27.95;;;4.70;1.00;;;;;;4976729;28;20180;-62
2020/12/09 09:25:15;;;;;;;54.70;28.50;;;4.70;1.00;;;;;;4976488;28;20192;-64
2020/12/09 09:27:41;;;;;;;52.53;25.60;;;4.70;1.00;;;;;;4976801;28;20195;-62
2020/12/09 09:30:08;;;;;;;51.77;25.13;;;4.50;1.00;;;;;;4978388;28;20195;-63
2020/12/09 09:32:34;;;;;;;49.70;26.20;;;4.50;1.00;;;;;;4970835;28;20199;-63
2020/12/09 09:34:59;;;;;;;58.30;27.60;;;4.30;1.00;;;;;;4976045;28;20298;-63
2020/12/09 09:37:25;;;;;;;55.87;27.83;;;4.70;1.00;;;;;;4979530;28;20427;-63
2020/12/09 09:39:51;;;;;;;71.07;34.13;;;4.60;1.00;;;;;;4994505;28;20636;-62
2020/12/09 09:42:17;;;;;;;52.05;27.13;;;4.50;1.00;;;;;;4976334;28;20180;-63
2020/12/09 09:44:47;;;;;;;58.95;28.05;;;4.60;1.00;;;;;;4976178;28;20523;-63
2020/12/09 09:47:12;;;;;;;45.47;25.17;;;4.40;1.00;;;;;;4975582;28;20645;-60
2020/12/09 09:49:38;;;;;;;48.23;24.43;;;4.50;1.00;;;;;;4976454;28;20180;-63
2020/12/09 09:52:04;;;;;;;56.97;26.33;;;4.70;1.00;;;;;;4976202;28;20282;-62
2020/12/09 09:54:30;;;;;;;53.38;26.45;;;4.50;1.00;;;;;;4976221;28;20306;-62
2020/12/09 09:56:56;;;;;;;53.70;26.80;;;4.50;1.00;;;;;;4976474;28;20259;-62
2020/12/09 09:59:22;;;;;;;58.73;28.20;;;4.70;1.00;;;;;;4976516;28;20243;-61
2020/12/09 10:01:47;;;;;;;52.30;27.90;;;4.80;1.00;;;;;;4976405;28;20435;-64
2020/12/09 10:04:13;;;;;;;92.00;41.93;;;4.70;1.00;;;;;;4976122;28;20188;-63
2020/12/09 10:06:39;;;;;;;54.70;29.90;;;4.90;1.00;;;;;;4976498;28;20189;-63
2020/12/09 10:09:06;;;;;;;62.63;30.77;;;5.10;1.00;;;;;;4976350;28;20267;-63
2020/12/09 10:11:39;;;;;;;55.65;29.40;;;4.90;99.90;;;;;;4976555;28;20641;-62
2020/12/09 10:14:09;;;;;;;48.20;23.55;;;4.70;99.90;;;;;;4975829;28;20605;-63
2020/12/09 10:16:36;;;;;;;57.63;27.92;;;4.80;1.00;;;;;;4976152;28;20571;-62
2020/12/09 10:19:03;;;;;;;52.60;25.25;;;4.70;99.90;;;;;;4975405;28;20215;-63
2020/12/09 10:21:31;;;;;;;55.80;28.33;;;4.70;1.00;;;;;;4972510;28;20180;-64
2020/12/09 10:23:58;;;;;;;51.63;26.02;;;4.60;1.00;;;;;;4971673;28;20196;-61
2020/12/09 10:26:43;;;;;;;54.10;24.50;;;4.90;1.00;;;;;;4975772;28;20538;-61
2020/12/09 10:29:10;;;;;;;56.83;27.15;;;4.90;99.90;;;;;;4975673;28;20176;-61
2020/12/09 10:31:41;;;;;;;57.20;27.60;;;4.80;1.00;;;;;;4975561;28;20231;-62
2020/12/09 10:34:09;;;;;;;51.90;26.20;;;4.90;1.00;;;;;;4974155;28;20180;-61
2020/12/09 10:36:35;;;;;;;60.35;29.48;;;5.00;1.00;;;;;;4974854;28;20200;-62
2020/12/09 10:39:01;;;;;;;74.50;37.28;;;5.00;1.00;;;;;;4975467;28;20222;-64
2020/12/09 10:41:27;;;;;;;48.87;24.60;;;5.20;1.00;;;;;;4975539;28;20343;-61
2020/12/09 10:43:54;;;;;;;62.70;28.73;;;5.30;99.90;;;;;;4958092;28;20428;-60
2020/12/09 10:46:20;;;;;;;55.90;28.55;;;5.10;99.90;;;;;;4975220;28;20628;-60
2020/12/09 10:48:47;;;;;;;55.10;29.35;;;5.00;99.90;;;;;;4975350;28;20187;-60
2020/12/09 10:51:14;;;;;;;59.55;27.70;;;5.30;99.90;;;;;;4975150;28;20190;-60
2020/12/09 10:53:39;;;;;;;53.47;27.08;;;4.90;99.90;;;;;;4974960;28;20226;-62
2020/12/09 10:56:05;;;;;;;57.77;31.03;;;4.90;99.90;;;;;;4974978;28;20668;-62
2020/12/09 10:58:31;;;;;;;52.70;27.70;;;4.90;99.90;;;;;;4978778;28;20191;-63
2020/12/09 11:00:57;;;;;;;54.90;27.80;;;5.10;99.90;;;;;;4994545;28;20506;-63
2020/12/09 11:03:23;;;;;;;61.78;27.27;;;4.90;99.90;;;;;;4992803;28;20259;-61
2020/12/09 11:05:50;;;;;;;57.40;29.08;;;4.90;1.00;;;;;;4994817;28;20191;-60
2020/12/09 11:08:15;;;;;;;60.22;29.85;;;4.90;1.00;;;;;;4994155;28;20189;-61
2020/12/09 11:10:41;;;;;;;57.67;29.70;;;4.90;1.00;;;;;;4994340;28;20474;-61
2020/12/09 11:13:07;;;;;;;63.43;29.30;;;5.00;1.00;;;;;;4993744;28;20245;-61
2020/12/09 11:15:33;;;;;;;56.75;29.83;;;4.90;1.00;;;;;;4973554;28;20874;-61
2020/12/09 11:17:59;;;;;;;59.35;31.33;;;4.90;1.00;;;;;;4974558;28;20184;-62
2020/12/09 11:20:26;;;;;;;67.00;30.77;;;5.10;1.00;;;;;;4982871;28;20197;-61
2020/12/09 11:22:52;;;;;;;61.30;31.70;;;5.00;99.90;;;;;;4984122;28;20438;-63
2020/12/09 11:25:18;;;;;;;64.67;30.07;;;5.20;99.90;;;;;;4974849;28;20267;-62
2020/12/09 11:27:43;;;;;;;55.23;31.17;;;5.10;99.90;;;;;;4973817;28;20242;-63
2020/12/09 11:30:09;;;;;;;56.40;28.77;;;5.10;99.90;;;;;;4973550;28;20198;-62
2020/12/09 11:32:35;;;;;;;56.33;27.30;;;5.10;99.90;;;;;;4955236;29;20185;-62
2020/12/09 11:35:02;;;;;;;58.13;30.70;;;5.00;99.90;;;;;;4954101;29;20220;-63
2020/12/09 11:37:32;;;;;;;60.67;26.77;;;5.20;99.90;;;;;;4990461;28;20191;-61
2020/12/09 11:39:57;;;;;;;50.65;25.77;;;5.30;99.90;;;;;;4994671;28;20194;-67
2020/12/09 11:42:23;;;;;;;60.60;29.50;;;5.30;99.90;;;;;;4972800;28;20187;-66
2020/12/09 11:44:48;;;;;;;61.83;30.57;;;5.30;99.90;;;;;;4974781;28;20184;-66
2020/12/09 11:47:14;;;;;;;51.77;28.13;;;5.50;99.90;;;;;;4974917;28;20282;-67
2020/12/09 11:49:39;;;;;;;62.53;29.57;;;5.70;99.90;;;;;;4975099;28;20246;-63
2020/12/09 11:52:05;;;;;;;58.87;28.37;;;5.70;99.90;;;;;;4975126;28;20191;-63
2020/12/09 11:54:31;;;;;;;71.50;33.67;;;5.70;99.90;;;;;;4974487;28;20613;-62
2020/12/09 11:56:59;;;;;;;81.17;37.60;;;5.60;1.00;;;;;;4970566;28;20680;-63
2020/12/09 11:59:25;;;;;;;59.58;29.42;;;5.60;1.00;;;;;;4969817;28;20509;-63
2020/12/09 12:01:52;;;;;;;51.95;29.63;;;5.70;32.40;;;;;;4975021;28;20586;-63
2020/12/09 12:04:17;;;;;;;54.22;28.52;;;5.80;1.00;;;;;;4974667;28;20180;-62
2020/12/09 12:06:43;;;;;;;54.87;27.87;;;5.80;1.00;;;;;;4975000;28;20254;-63
2020/12/09 12:09:09;;;;;;;57.83;27.40;;;5.80;1.00;;;;;;4974792;28;20536;-63
2020/12/09 12:11:35;;;;;;;53.97;29.30;;;5.50;1.00;;;;;;4974787;28;20675;-63
2020/12/09 12:14:00;;;;;;;57.13;28.50;;;5.30;11.60;;;;;;4972970;28;20466;-62
2020/12/09 12:16:26;;;;;;;57.07;27.37;;;5.20;99.90;;;;;;4974664;28;20905;-62
2020/12/09 12:18:53;;;;;;;64.90;29.87;;;5.30;99.90;;;;;;4974661;28;20183;-63
2020/12/09 12:21:21;;;;;;;64.47;30.85;;;5.40;99.90;;;;;;4974514;28;20172;-64
2020/12/09 12:23:47;;;;;;;58.95;28.20;;;5.60;99.90;;;;;;4973464;28;20220;-62
2020/12/09 12:26:20;;;;;;;56.27;28.80;;;5.70;99.90;;;;;;4974783;28;20295;-63
2020/12/09 12:28:47;;;;;;;62.17;29.50;;;6.00;99.90;;;;;;4974679;28;20188;-63
2020/12/09 12:31:14;;;;;;;108.20;48.53;;;5.90;1.00;;;;;;4973648;28;20185;-63
2020/12/09 12:33:40;;;;;;;91.55;43.15;;;5.80;1.00;;;;;;4974619;28;20184;-63
2020/12/09 12:36:09;;;;;;;61.80;30.52;;;5.80;1.00;;;;;;4974440;28;20355;-64
2020/12/09 12:38:35;;;;;;;58.47;28.75;;;5.60;1.00;;;;;;4974359;28;20176;-64
2020/12/09 12:41:04;;;;;;;57.92;30.48;;;5.50;90.40;;;;;;4975186;28;20191;-64
2020/12/09 12:43:29;;;;;;;52.83;26.58;;;5.50;99.90;;;;;;4977512;28;20183;-64